Terminal Aerodrome Forecast
Issued by NWS

Home | Current Version | Previous Version | Text Only | Print | Product List | Glossary On
Versions: 1 2 3 4 5 6 7 8 9 10 11 12 13 14 15 16 17 18 19
000
FTUS43 KMQT 301646 AAA
TAFCMX
TAF AMD
KCMX 301646Z 3017/3112 31009KT 2SM -SHSN OVC025
     FM301800 26005KT 5SM -SHSN OVC025
     FM310000 21005KT P6SM SCT025 BKN060
     FM310300 21003KT 3SM -SN OVC020
     FM310500 22005KT 1 1/2SM -SN OVC016
     FM311100 28007KT 3SM -SN OVC014=

USA.gov is the U.S. government's official web portal to all federal, state and local government web resources and services.